Time;durP1;ratioP1;P1;durP2;ratioP2;P2;SDS_P1;SDS_P2;PMS_P1;PMS_P2;Temp;Humidity;BMP_temperature;BMP_pressure;BME280_temperature;BME280_humidity;BME280_pressure;Samples;Min_cycle;Max_cycle;Signal;HPM_P1;HPM_P2
2021/04/12 00:03:14;;;;;;;0.00;0.00;;;8.90;69.80;;;;;;6075178;29;20190;-79
2021/04/12 00:06:27;;;;;;;0.10;0.10;;;8.80;69.90;;;;;;6096445;29;20043;-79
2021/04/12 00:09:50;;;;;;;0.13;0.10;;;8.80;69.90;;;;;;6144879;29;20086;-79
2021/04/12 00:12:58;;;;;;;0.00;0.00;;;8.80;69.70;;;;;;6145206;29;20027;-79
2021/04/12 00:16:16;;;;;;;0.00;0.00;;;8.80;69.60;;;;;;6183118;28;20130;-80
2021/04/12 00:20:02;;;;;;;0.00;0.00;;;8.80;69.40;;;;;;6234920;28;20022;-80
2021/04/12 00:23:09;;;;;;;0.00;0.00;;;8.80;69.30;;;;;;6193367;28;20069;-80
2021/04/12 00:26:56;;;;;;;0.00;0.00;;;8.80;68.80;;;;;;6210615;28;20125;-81
2021/04/12 00:30:13;;;;;;;0.00;0.00;;;8.80;68.40;;;;;;6185828;28;20043;-80
2021/04/12 00:33:58;;;;;;;0.00;0.00;;;8.80;68.20;;;;;;6191970;28;20057;-79
2021/04/12 00:37:45;;;;;;;0.00;0.00;;;8.80;68.30;;;;;;6219324;28;20049;-80
2021/04/12 00:41:25;;;;;;;0.03;0.00;;;8.80;68.60;;;;;;6132608;29;20046;-81
2021/04/12 00:49:25;;;;;;;0.00;0.00;;;8.80;68.50;;;;;;6121485;29;20044;-81
2021/04/12 00:53:29;;;;;;;0.05;0.00;;;8.80;68.50;;;;;;6083837;29;20103;-78
2021/04/12 00:57:35;;;;;;;;;;;;;;;;;;;;;
2021/04/12 01:05:27;;;;;;;0.00;0.00;;;8.70;68.00;;;;;;6064230;29;20041;-80
2021/04/12 01:09:13;;;;;;;0.00;0.00;;;8.70;68.00;;;;;;6068126;29;20037;-80
2021/04/12 01:13:06;;;;;;;0.00;0.00;;;8.70;68.10;;;;;;6075660;29;20041;-80
2021/04/12 01:16:38;;;;;;;0.10;0.10;;;8.60;68.30;;;;;;6074813;29;20113;-79
2021/04/12 01:20:01;;;;;;;0.10;0.03;;;8.50;67.70;;;;;;6072860;29;20487;-80
2021/04/12 01:23:28;;;;;;;0.00;0.00;;;8.50;68.30;;;;;;6069766;29;20137;-78
2021/04/12 01:26:31;;;;;;;0.00;0.00;;;8.50;68.30;;;;;;6082806;29;20036;-78
2021/04/12 01:30:09;;;;;;;0.10;0.10;;;8.50;68.40;;;;;;6108744;29;20360;-79
2021/04/12 01:33:12;;;;;;;0.00;0.00;;;8.50;68.40;;;;;;6204840;28;20548;-78
2021/04/12 01:36:22;;;;;;;0.00;0.00;;;8.50;68.70;;;;;;6228374;28;20022;-78
2021/04/12 01:39:29;;;;;;;0.00;0.00;;;8.50;67.50;;;;;;6212071;28;20128;-78
2021/04/12 01:42:41;;;;;;;0.00;0.00;;;8.60;67.50;;;;;;6253475;28;20033;-78
2021/04/12 01:45:54;;;;;;;0.00;0.00;;;8.60;67.20;;;;;;6262009;28;20028;-78
2021/04/12 01:49:11;;;;;;;0.00;0.00;;;8.60;67.00;;;;;;6278772;28;20021;-78
2021/04/12 01:52:33;;;;;;;0.00;0.00;;;8.70;66.90;;;;;;6261897;28;20091;-78
2021/04/12 01:56:00;;;;;;;0.20;0.00;;;8.80;66.70;;;;;;6278270;28;20028;-79
2021/04/12 01:59:20;;;;;;;0.00;0.00;;;8.80;66.40;;;;;;6261671;28;20345;-79
2021/04/12 02:02:31;;;;;;;0.00;0.00;;;8.90;66.40;;;;;;6279955;28;20116;-79
2021/04/12 02:05:41;;;;;;;0.00;0.00;;;9.00;66.10;;;;;;6281010;28;20446;-79
2021/04/12 02:08:57;;;;;;;0.00;0.00;;;9.00;65.90;;;;;;6277404;28;20049;-79
2021/04/12 02:12:30;;;;;;;0.00;0.00;;;9.10;65.70;;;;;;6241340;28;20464;-79
2021/04/12 02:16:05;;;;;;;0.05;0.03;;;9.10;65.30;;;;;;6254678;28;20033;-79
2021/04/12 02:19:31;;;;;;;0.00;0.00;;;9.10;65.30;;;;;;6253771;28;20029;-79
2021/04/12 02:22:56;;;;;;;0.00;0.00;;;9.10;65.10;;;;;;6252897;28;20095;-79
2021/04/12 02:26:23;;;;;;;0.00;0.00;;;9.10;65.10;;;;;;6246800;28;20026;-79
2021/04/12 02:29:27;;;;;;;0.32;0.10;;;9.20;65.20;;;;;;6212318;28;20026;-79
2021/04/12 02:32:42;;;;;;;0.00;0.00;;;9.30;65.20;;;;;;6240823;28;20115;-79
2021/04/12 02:36:16;;;;;;;0.00;0.00;;;9.40;65.00;;;;;;6236204;28;20377;-78
2021/04/12 02:40:01;;;;;;;0.00;0.00;;;9.40;64.70;;;;;;6251946;28;20060;-78
2021/04/12 02:43:29;;;;;;;0.00;0.00;;;9.40;64.20;;;;;;6235419;28;20063;-78
2021/04/12 02:46:48;;;;;;;0.10;0.00;;;9.40;64.00;;;;;;6252363;28;20033;-78
2021/04/12 02:50:07;;;;;;;;;;;9.50;64.20;;;;;;6236162;28;20037;-79
2021/04/12 02:53:30;;;;;;;0.10;0.10;;;9.50;64.00;;;;;;6251540;28;19913;-79
2021/04/12 02:56:55;;;;;;;0.00;0.00;;;9.50;63.90;;;;;;6252763;28;20021;-79
2021/04/12 03:00:31;;;;;;;0.00;0.00;;;9.60;64.00;;;;;;6235841;28;20096;-78
2021/04/12 03:03:48;;;;;;;0.00;0.00;;;9.60;63.60;;;;;;6251204;28;20033;-78
2021/04/12 03:07:37;;;;;;;0.00;0.00;;;9.60;63.60;;;;;;6234670;28;20041;-79
2021/04/12 03:10:59;;;;;;;0.00;0.00;;;9.70;63.50;;;;;;6244792;28;20506;-79
2021/04/12 03:14:33;;;;;;;0.00;0.00;;;9.60;63.10;;;;;;6276898;28;20033;-78
2021/04/12 03:18:02;;;;;;;0.10;0.10;;;9.60;63.50;;;;;;6277781;28;20426;-79
2021/04/12 03:21:12;;;;;;;0.00;0.00;;;9.70;63.60;;;;;;6276067;28;20420;-78
2021/04/12 03:25:04;;;;;;;0.03;0.00;;;9.60;63.10;;;;;;6259753;28;20372;-79
2021/04/12 03:28:32;;;;;;;0.00;0.00;;;9.70;63.10;;;;;;6201346;28;20128;-79
2021/04/12 03:32:07;;;;;;;0.00;0.00;;;9.70;62.60;;;;;;6201153;28;20610;-78
2021/04/12 03:35:09;;;;;;;0.03;0.03;;;9.70;62.00;;;;;;6201645;28;20276;-79
2021/04/12 03:38:23;;;;;;;0.10;0.05;;;9.70;62.00;;;;;;6201917;28;20100;-78
2021/04/12 03:41:54;;;;;;;0.10;0.10;;;9.80;62.20;;;;;;6176718;28;20039;-78
2021/04/12 03:44:58;;;;;;;0.20;0.10;;;9.70;62.20;;;;;;6161806;28;20509;-80
2021/04/12 03:48:36;;;;;;;0.00;0.00;;;9.80;62.40;;;;;;6177092;28;20096;-78
2021/04/12 03:52:07;;;;;;;0.00;0.00;;;9.70;62.20;;;;;;6160634;28;20046;-78
2021/04/12 03:55:22;;;;;;;0.10;0.10;;;9.70;62.10;;;;;;6177364;28;20027;-78
2021/04/12 03:58:32;;;;;;;0.10;0.10;;;9.70;62.00;;;;;;6177182;28;20031;-78
2021/04/12 04:01:35;;;;;;;0.13;0.10;;;9.70;62.10;;;;;;6176842;28;20035;-77
2021/04/12 04:05:07;;;;;;;0.00;0.00;;;9.60;62.20;;;;;;6250766;28;20029;-78
2021/04/12 04:08:56;;;;;;;0.05;0.05;;;9.50;62.10;;;;;;6251584;28;20044;-78
2021/04/12 04:12:39;;;;;;;0.80;0.10;;;9.50;62.00;;;;;;6263524;28;20041;-78
2021/04/12 04:16:18;;;;;;;0.00;0.00;;;9.40;61.90;;;;;;6234299;28;20041;-78
2021/04/12 04:19:40;;;;;;;0.00;0.00;;;9.40;61.90;;;;;;6249876;28;20116;-78
2021/04/12 04:22:44;;;;;;;0.00;0.00;;;9.40;61.90;;;;;;6251226;28;20025;-78
2021/04/12 04:26:04;;;;;;;0.28;0.17;;;9.40;61.90;;;;;;6250355;28;20123;-79
2021/04/12 04:29:26;;;;;;;0.10;0.10;;;9.30;62.00;;;;;;6253788;28;20504;-79
2021/04/12 04:32:55;;;;;;;0.00;0.00;;;9.30;62.10;;;;;;6233918;28;20134;-78
2021/04/12 04:36:23;;;;;;;0.00;0.00;;;9.40;62.10;;;;;;6233601;28;20034;-77
2021/04/12 04:39:56;;;;;;;0.00;0.00;;;9.30;62.00;;;;;;6217886;28;20044;-78
2021/04/12 04:43:05;;;;;;;0.17;0.08;;;9.40;62.10;;;;;;6250316;28;20025;-77
2021/04/12 04:46:15;;;;;;;0.03;0.00;;;9.30;61.70;;;;;;6281242;28;20036;-78
2021/04/12 04:49:22;;;;;;;0.00;0.00;;;9.30;61.80;;;;;;6265294;28;20466;-78
2021/04/12 04:52:36;;;;;;;0.20;0.10;;;9.30;61.90;;;;;;6263108;28;20363;-79
2021/04/12 04:56:02;;;;;;;0.00;0.00;;;9.30;61.90;;;;;;6259323;28;20087;-79
2021/04/12 04:59:34;;;;;;;0.20;0.20;;;9.40;61.90;;;;;;6258030;28;20037;-78
2021/04/12 05:03:13;;;;;;;0.10;0.10;;;9.40;61.60;;;;;;6259471;28;20408;-78
2021/04/12 05:06:48;;;;;;;0.10;0.10;;;9.40;61.70;;;;;;6225060;28;20483;-78
2021/04/12 05:10:33;;;;;;;0.00;0.00;;;9.40;61.40;;;;;;6224664;28;20112;-78
2021/04/12 05:13:52;;;;;;;0.00;0.00;;;9.40;61.60;;;;;;6224538;28;20423;-79
2021/04/12 05:17:30;;;;;;;0.25;0.20;;;9.40;61.60;;;;;;6225308;28;20129;-79
2021/04/12 05:21:07;;;;;;;2.05;0.20;;;9.40;61.50;;;;;;6225753;28;20041;-78
2021/04/12 05:24:46;;;;;;;0.10;0.10;;;9.30;62.20;;;;;;6176658;28;20120;-79
2021/04/12 05:28:11;;;;;;;0.15;0.15;;;9.30;61.40;;;;;;6081875;29;20043;-81
2021/04/12 05:31:56;;;;;;;0.10;0.10;;;9.30;61.50;;;;;;6083119;29;20195;-78
2021/04/12 05:35:27;;;;;;;0.22;0.20;;;9.40;61.80;;;;;;6016432;29;20074;-78
2021/04/12 05:38:55;;;;;;;1.00;0.25;;;9.30;61.70;;;;;;6002482;29;20064;-79
2021/04/12 05:42:49;;;;;;;0.50;0.30;;;9.40;61.80;;;;;;6015692;29;20375;-80
2021/04/12 05:46:08;;;;;;;0.40;0.40;;;9.40;61.80;;;;;;6038662;29;20050;-78
2021/04/12 05:49:27;;;;;;;1.63;0.65;;;9.50;61.80;;;;;;6038574;29;20038;-79
2021/04/12 05:52:56;;;;;;;7.47;0.40;;;9.40;61.90;;;;;;6038515;29;20045;-78
2021/04/12 05:56:21;;;;;;;0.50;0.40;;;9.40;62.00;;;;;;6038706;29;20066;-78
2021/04/12 05:59:31;;;;;;;0.40;0.30;;;9.40;61.90;;;;;;6040897;29;20048;-77
2021/04/12 06:03:02;;;;;;;0.10;0.10;;;9.40;61.90;;;;;;6108841;29;20138;-78
2021/04/12 06:06:50;;;;;;;1.85;0.30;;;9.40;61.90;;;;;;6131497;29;20063;-79
2021/04/12 06:10:18;;;;;;;0.30;0.30;;;9.40;62.00;;;;;;6116351;29;20079;-79
2021/04/12 06:13:40;;;;;;;0.30;0.30;;;9.40;61.90;;;;;;6131714;29;20123;-79
2021/04/12 06:16:41;;;;;;;0.25;0.25;;;9.50;61.60;;;;;;6131735;29;20361;-79
2021/04/12 06:20:13;;;;;;;0.28;0.22;;;9.50;61.80;;;;;;6131919;29;20044;-80
2021/04/12 06:23:38;;;;;;;0.55;0.32;;;9.50;61.80;;;;;;6155004;29;20163;-79
2021/04/12 06:27:03;;;;;;;0.40;0.40;;;9.50;61.60;;;;;;6155142;29;20078;-79
2021/04/12 06:30:15;;;;;;;0.32;0.32;;;9.50;61.50;;;;;;6154607;29;20035;-79
2021/04/12 06:33:38;;;;;;;0.47;0.40;;;9.50;61.70;;;;;;6154616;29;20070;-79
2021/04/12 06:36:57;;;;;;;0.40;0.40;;;9.50;61.80;;;;;;6151805;28;20037;-80
2021/04/12 06:40:26;;;;;;;0.45;0.35;;;9.60;62.00;;;;;;6155209;29;20190;-78
2021/04/12 06:44:11;;;;;;;0.40;0.40;;;9.50;62.10;;;;;;6153788;28;20059;-79
2021/04/12 06:47:33;;;;;;;0.55;0.40;;;9.50;62.10;;;;;;6195647;28;20033;-80
2021/04/12 06:51:12;;;;;;;2.47;0.90;;;9.60;62.20;;;;;;6252952;28;20033;-79
2021/04/12 06:54:32;;;;;;;0.80;0.50;;;9.50;62.20;;;;;;6254011;28;20021;-80
2021/04/12 06:58:06;;;;;;;0.70;0.60;;;9.60;62.40;;;;;;6253939;28;20356;-80
2021/04/12 07:01:36;;;;;;;1.30;0.98;;;9.60;62.30;;;;;;6253901;28;20128;-78
2021/04/12 07:05:12;;;;;;;0.63;0.63;;;9.60;62.20;;;;;;6236004;28;20033;-82
2021/04/12 07:08:42;;;;;;;0.85;0.80;;;9.60;62.20;;;;;;6235251;28;20040;-80
2021/04/12 07:12:13;;;;;;;0.88;0.80;;;9.60;62.00;;;;;;6259925;28;20066;-81
2021/04/12 07:15:39;;;;;;;1.10;1.00;;;9.60;61.50;;;;;;6260014;28;20364;-80
2021/04/12 07:19:02;;;;;;;0.77;0.70;;;9.70;61.50;;;;;;6259897;28;20029;-80
2021/04/12 07:22:12;;;;;;;1.02;0.95;;;9.80;61.30;;;;;;6260117;28;20044;-78
2021/04/12 07:25:49;;;;;;;0.80;0.80;;;9.80;60.90;;;;;;6277312;28;20033;-79
2021/04/12 07:29:20;;;;;;;1.02;0.82;;;9.80;61.10;;;;;;6276956;28;20028;-79
2021/04/12 07:32:33;;;;;;;0.73;0.73;;;9.80;60.90;;;;;;6257773;28;20064;-80
2021/04/12 07:35:46;;;;;;;0.82;0.80;;;9.90;60.80;;;;;;6262149;28;20087;-79
2021/04/12 07:39:14;;;;;;;2.38;1.60;;;10.00;60.90;;;;;;6252679;28;20167;-80
2021/04/12 07:42:34;;;;;;;2.65;0.82;;;10.00;60.50;;;;;;6259699;28;20069;-79
2021/04/12 07:46:28;;;;;;;0.38;0.38;;;10.00;60.30;;;;;;6261828;28;20032;-79
2021/04/12 07:50:00;;;;;;;1.02;0.95;;;10.10;60.10;;;;;;6227809;28;20532;-79
2021/04/12 07:53:04;;;;;;;3.08;1.00;;;10.10;60.30;;;;;;6139433;29;20129;-80
2021/04/12 07:56:30;;;;;;;1.85;1.02;;;10.10;60.00;;;;;;6137264;29;20039;-79
2021/04/12 07:59:49;;;;;;;2.53;1.45;;;10.10;60.30;;;;;;6151613;29;20094;-78
2021/04/12 08:03:23;;;;;;;1.17;0.95;;;10.10;60.40;;;;;;6152844;29;20039;-78
2021/04/12 08:06:42;;;;;;;1.35;0.88;;;10.10;60.30;;;;;;6136171;29;20067;-78
2021/04/12 08:09:58;;;;;;;1.17;1.08;;;10.20;60.10;;;;;;6152851;29;20133;-79
2021/04/12 08:13:03;;;;;;;1.27;0.90;;;10.00;60.20;;;;;;6152318;29;20050;-80
2021/04/12 08:16:13;;;;;;;1.80;0.77;;;10.00;60.40;;;;;;6153073;29;20047;-80
2021/04/12 08:19:32;;;;;;;0.82;0.80;;;10.00;60.30;;;;;;6137423;28;20031;-78
2021/04/12 08:22:35;;;;;;;;;;;10.00;59.90;;;;;;6152285;29;20062;-78
2021/04/12 08:26:07;;;;;;;0.80;0.80;;;10.10;60.00;;;;;;6142641;28;19945;-79
2021/04/12 08:29:15;;;;;;;0.70;0.70;;;10.10;59.90;;;;;;6214987;28;20041;-79
2021/04/12 08:32:46;;;;;;;1.35;0.80;;;10.10;60.10;;;;;;6248477;28;20035;-79
2021/04/12 08:36:17;;;;;;;1.00;0.70;;;10.20;60.00;;;;;;6233645;28;20143;-79
2021/04/12 08:39:45;;;;;;;2.25;1.00;;;10.30;59.40;;;;;;6263224;28;20028;-78
2021/04/12 08:42:56;;;;;;;1.27;1.00;;;10.30;59.30;;;;;;6229285;28;20053;-78
2021/04/12 08:46:24;;;;;;;0.70;0.70;;;10.40;59.40;;;;;;6227671;28;20021;-79
2021/04/12 08:49:55;;;;;;;0.80;0.80;;;10.50;59.50;;;;;;6265140;28;20028;-80
2021/04/12 08:53:36;;;;;;;1.73;1.15;;;10.60;59.30;;;;;;6246849;28;20025;-79
2021/04/12 08:57:26;;;;;;;1.95;0.88;;;10.60;59.10;;;;;;6158607;28;20051;-79
2021/04/12 09:00:42;;;;;;;0.77;0.68;;;10.80;59.10;;;;;;6174277;28;20477;-80
2021/04/12 09:04:21;;;;;;;1.50;1.10;;;11.00;58.60;;;;;;6166197;28;20504;-80
2021/04/12 09:07:43;;;;;;;1.48;1.00;;;11.00;58.10;;;;;;6170071;28;20646;-79
2021/04/12 09:10:47;;;;;;;1.05;0.95;;;11.20;58.10;;;;;;6184675;28;20132;-81
2021/04/12 09:14:12;;;;;;;1.63;1.15;;;11.20;58.10;;;;;;6188459;28;20150;-81
2021/04/12 09:17:37;;;;;;;1.50;0.88;;;11.20;57.90;;;;;;6161554;28;20123;-80
2021/04/12 09:20:39;;;;;;;1.23;0.80;;;11.40;57.60;;;;;;6162418;28;20062;-80
2021/04/12 09:24:22;;;;;;;1.10;0.93;;;11.50;57.10;;;;;;6171250;28;20026;-81
2021/04/12 09:27:44;;;;;;;3.97;1.05;;;11.50;56.90;;;;;;6175914;28;20045;-83
2021/04/12 09:30:57;;;;;;;1.20;0.73;;;11.60;56.30;;;;;;6191557;28;20437;-80
2021/04/12 09:34:41;;;;;;;0.90;0.70;;;11.50;56.10;;;;;;6239178;28;20045;-81
2021/04/12 09:37:42;;;;;;;1.30;1.20;;;11.50;56.40;;;;;;6264779;28;20029;-82
2021/04/12 09:40:49;;;;;;;1.42;0.98;;;11.50;56.50;;;;;;6240052;28;20060;-80
2021/04/12 09:44:23;;;;;;;1.92;1.52;;;11.50;56.50;;;;;;6252956;28;20459;-80
2021/04/12 09:47:58;;;;;;;2.83;1.83;;;11.50;56.40;;;;;;6268154;28;20448;-80
2021/04/12 09:51:02;;;;;;;2.58;1.52;;;11.60;56.30;;;;;;6279320;28;20052;-80
2021/04/12 09:54:43;;;;;;;2.30;1.60;;;11.60;56.00;;;;;;6260882;28;20025;-80
2021/04/12 09:58:22;;;;;;;3.00;1.67;;;11.60;55.80;;;;;;6238720;28;20025;-80
2021/04/12 10:01:51;;;;;;;2.53;1.67;;;11.60;55.50;;;;;;6236801;28;20037;-80
2021/04/12 10:05:16;;;;;;;4.47;1.52;;;11.60;55.60;;;;;;6253796;28;20061;-80
2021/04/12 10:08:40;;;;;;;2.28;1.50;;;11.80;55.60;;;;;;6255456;28;20033;-81
2021/04/12 10:12:09;;;;;;;2.85;1.58;;;12.00;55.30;;;;;;6239525;28;20037;-79
2021/04/12 10:15:30;;;;;;;1.23;1.13;;;12.10;54.70;;;;;;6254484;28;20102;-81
2021/04/12 10:18:44;;;;;;;2.05;1.65;;;12.10;54.40;;;;;;6252779;28;20520;-81
2021/04/12 10:22:12;;;;;;;3.80;1.85;;;12.20;54.40;;;;;;6237908;28;20037;-82
2021/04/12 10:25:39;;;;;;;2.45;1.42;;;12.30;54.30;;;;;;6242332;28;20048;-79
2021/04/12 10:28:47;;;;;;;3.00;1.05;;;12.40;54.30;;;;;;6239173;28;20043;-81
2021/04/12 10:32:01;;;;;;;2.13;1.65;;;12.40;53.60;;;;;;6255587;28;20021;-80
2021/04/12 10:35:35;;;;;;;2.10;1.30;;;12.20;53.10;;;;;;6253983;28;20087;-82
2021/04/12 10:38:39;;;;;;;1.40;1.20;;;12.10;53.50;;;;;;6221275;28;20025;-81
2021/04/12 10:41:53;;;;;;;1.63;1.05;;;12.10;53.90;;;;;;6251735;28;20087;-81
2021/04/12 10:45:08;;;;;;;3.15;1.17;;;12.20;54.00;;;;;;6217345;28;20435;-81
2021/04/12 10:48:22;;;;;;;1.17;0.90;;;12.20;53.20;;;;;;6243018;28;20103;-80
2021/04/12 10:51:29;;;;;;;1.40;0.98;;;12.30;53.80;;;;;;6224403;28;20049;-81
2021/04/12 10:54:40;;;;;;;4.30;1.10;;;12.40;52.80;;;;;;6257737;28;20032;-83
2021/04/12 10:58:08;;;;;;;1.70;1.30;;;12.50;52.20;;;;;;6245427;28;20025;-81
2021/04/12 11:01:18;;;;;;;1.95;1.33;;;12.50;52.30;;;;;;6250287;28;20025;-82
2021/04/12 11:04:55;;;;;;;0.88;0.80;;;12.50;52.00;;;;;;6261098;28;20044;-81
2021/04/12 11:08:29;;;;;;;1.50;1.10;;;12.50;52.50;;;;;;6218371;28;20052;-83
2021/04/12 11:11:43;;;;;;;1.27;1.10;;;12.40;52.20;;;;;;6238556;28;20030;-80
2021/04/12 11:15:01;;;;;;;1.70;1.23;;;12.40;52.10;;;;;;6232378;28;20025;-81
2021/04/12 11:18:33;;;;;;;1.50;1.17;;;12.40;52.50;;;;;;6231792;28;20033;-83
2021/04/12 11:22:14;;;;;;;1.75;1.10;;;12.50;52.40;;;;;;6234047;28;20032;-79
2021/04/12 11:25:59;;;;;;;5.93;1.50;;;12.60;51.90;;;;;;6249629;28;20040;-81
2021/04/12 11:29:18;;;;;;;3.35;1.10;;;12.80;51.20;;;;;;6178989;28;20477;-80
2021/04/12 11:33:06;;;;;;;2.35;1.45;;;13.00;50.70;;;;;;6201201;28;20535;-80
2021/04/12 11:36:25;;;;;;;2.58;1.52;;;13.20;50.00;;;;;;6113813;29;20192;-80
2021/04/12 11:39:31;;;;;;;2.47;1.27;;;13.40;50.60;;;;;;6112640;29;20452;-81
2021/04/12 11:42:36;;;;;;;3.58;1.65;;;13.60;50.40;;;;;;6128803;29;20035;-80
2021/04/12 11:46:12;;;;;;;2.55;1.40;;;13.60;50.30;;;;;;6112512;29;20050;-81
2021/04/12 11:49:45;;;;;;;4.97;1.67;;;13.70;50.20;;;;;;6082678;29;20075;-79
2021/04/12 11:53:09;;;;;;;3.53;1.20;;;13.80;49.90;;;;;;6105678;29;20048;-79
2021/04/12 11:56:32;;;;;;;2.42;1.40;;;13.90;49.80;;;;;;6106942;29;20387;-80
2021/04/12 11:59:49;;;;;;;2.40;1.60;;;14.00;48.60;;;;;;6113649;29;20043;-81
2021/04/12 12:02:56;;;;;;;1.40;1.10;;;14.10;48.10;;;;;;6119392;29;20373;-82
2021/04/12 12:06:23;;;;;;;2.03;1.40;;;14.10;48.30;;;;;;6137157;29;20215;-86
2021/04/12 12:09:44;;;;;;;7.63;1.45;;;14.10;48.20;;;;;;6158398;28;20456;-80
2021/04/12 12:12:57;;;;;;;9.27;1.20;;;14.10;48.30;;;;;;6250761;28;20091;-79
2021/04/12 12:16:40;;;;;;;1.92;1.10;;;14.10;47.90;;;;;;6228344;28;20025;-78
2021/04/12 12:19:59;;;;;;;3.50;1.50;;;14.00;48.30;;;;;;6200943;28;20112;-79
2021/04/12 12:23:16;;;;;;;2.65;1.65;;;14.10;48.90;;;;;;6185029;28;20078;-79
2021/04/12 12:26:48;;;;;;;3.78;1.35;;;14.20;48.70;;;;;;6183122;28;20054;-78
2021/04/12 12:30:02;;;;;;;3.28;1.58;;;14.20;48.60;;;;;;6201919;28;20050;-79
2021/04/12 12:33:23;;;;;;;4.38;1.80;;;14.10;48.90;;;;;;6168613;28;20041;-78
2021/04/12 12:36:38;;;;;;;4.45;1.35;;;14.20;49.00;;;;;;6184377;28;20204;-78
2021/04/12 12:39:46;;;;;;;2.55;1.40;;;14.20;48.20;;;;;;6183250;28;20030;-80
2021/04/12 12:42:52;;;;;;;2.15;1.45;;;14.20;47.70;;;;;;6200671;28;20042;-77
2021/04/12 12:46:03;;;;;;;3.10;1.52;;;14.20;47.40;;;;;;6204648;28;20031;-80
2021/04/12 12:49:13;;;;;;;3.85;2.20;;;14.00;47.80;;;;;;6204493;28;20042;-77
2021/04/12 12:52:27;;;;;;;2.63;1.52;;;14.00;48.00;;;;;;6187812;28;20196;-79
2021/04/12 12:55:44;;;;;;;4.32;1.58;;;14.00;48.20;;;;;;6223620;28;20472;-78
2021/04/12 12:58:55;;;;;;;6.80;2.10;;;14.20;47.80;;;;;;6222270;28;20030;-77
2021/04/12 13:01:58;;;;;;;3.47;1.73;;;14.50;47.60;;;;;;6220509;28;20091;-80
2021/04/12 13:05:11;;;;;;;3.30;1.70;;;14.80;46.70;;;;;;6238273;28;20464;-80
2021/04/12 13:08:20;;;;;;;5.00;1.40;;;16.00;44.50;;;;;;6239588;28;20368;-82
2021/04/12 13:11:41;;;;;;;3.78;1.50;;;16.40;42.80;;;;;;6239313;28;20452;-78
2021/04/12 13:14:49;;;;;;;4.07;1.00;;;16.00;43.10;;;;;;6242566;28;20035;-81
2021/04/12 13:17:50;;;;;;;4.15;1.73;;;15.60;43.10;;;;;;6247430;28;20036;-80
2021/04/12 13:21:13;;;;;;;5.97;1.77;;;15.20;43.30;;;;;;6246500;28;20033;-79
2021/04/12 13:24:36;;;;;;;2.47;1.55;;;15.20;44.10;;;;;;6242226;28;20041;-78
2021/04/12 13:27:39;;;;;;;1.50;1.25;;;15.10;44.10;;;;;;6231534;28;20025;-80
2021/04/12 13:30:57;;;;;;;2.40;1.45;;;15.00;44.10;;;;;;6221038;28;20025;-79
2021/04/12 13:34:17;;;;;;;2.33;1.40;;;14.90;44.30;;;;;;6222006;28;20030;-79
2021/04/12 13:37:25;;;;;;;3.25;1.30;;;14.80;44.30;;;;;;6240060;28;20264;-77
2021/04/12 13:40:46;;;;;;;2.60;1.55;;;14.60;44.90;;;;;;6221577;28;20195;-80
2021/04/12 13:43:52;;;;;;;1.77;0.68;;;14.60;45.00;;;;;;6243975;28;20411;-78
2021/04/12 13:47:07;;;;;;;3.08;1.40;;;14.50;45.30;;;;;;6220329;28;20120;-78
2021/04/12 13:50:29;;;;;;;2.67;1.35;;;14.40;44.80;;;;;;6236320;28;20095;-79
2021/04/12 13:53:48;;;;;;;1.83;1.20;;;14.30;45.10;;;;;;6219097;28;20036;-78
2021/04/12 13:57:09;;;;;;;1.98;1.08;;;14.20;45.00;;;;;;6235337;28;20033;-79
2021/04/12 14:00:27;;;;;;;2.42;1.10;;;14.20;44.10;;;;;;6236511;28;20026;-78
2021/04/12 14:03:37;;;;;;;0.87;0.80;;;14.20;44.40;;;;;;6235387;28;20026;-78
2021/04/12 14:06:53;;;;;;;2.20;1.08;;;14.30;44.40;;;;;;6220917;28;20029;-79
2021/04/12 14:10:08;;;;;;;2.25;1.10;;;14.40;44.20;;;;;;6232110;28;20060;-78
2021/04/12 14:13:26;;;;;;;3.53;1.30;;;14.30;43.70;;;;;;6261486;28;20115;-79
2021/04/12 14:16:32;;;;;;;1.17;0.98;;;14.20;43.90;;;;;;6261058;28;20025;-80
2021/04/12 14:19:46;;;;;;;1.48;1.00;;;14.20;44.00;;;;;;6260850;28;20025;-79
2021/04/12 14:22:51;;;;;;;3.35;1.00;;;14.10;43.40;;;;;;6260919;28;20120;-79
2021/04/12 14:26:04;;;;;;;3.10;1.33;;;14.10;44.00;;;;;;6260630;28;20060;-79
2021/04/12 14:29:29;;;;;;;2.28;1.02;;;14.10;44.10;;;;;;6260772;28;20470;-79
2021/04/12 14:32:49;;;;;;;1.95;1.15;;;14.00;43.90;;;;;;6277030;28;20029;-78
2021/04/12 14:36:06;;;;;;;1.33;1.08;;;13.90;44.20;;;;;;6277682;28;20589;-83
2021/04/12 14:39:13;;;;;;;1.73;1.10;;;13.90;44.00;;;;;;6259579;28;20020;-81
2021/04/12 14:42:19;;;;;;;1.88;0.75;;;14.00;43.80;;;;;;6268235;28;20036;-80
2021/04/12 14:45:34;;;;;;;2.60;0.98;;;14.00;43.40;;;;;;6240697;28;20489;-79
2021/04/12 14:48:45;;;;;;;1.70;0.90;;;14.10;43.20;;;;;;6259925;28;20025;-82
2021/04/12 14:52:01;;;;;;;1.08;0.90;;;14.20;43.00;;;;;;6275372;28;20036;-82
2021/04/12 14:55:15;;;;;;;1.20;1.00;;;14.20;43.10;;;;;;6260745;28;20100;-85
2021/04/12 14:58:34;;;;;;;5.75;1.23;;;14.20;42.60;;;;;;6261001;28;20036;-84
2021/04/12 15:01:52;;;;;;;1.45;0.88;;;14.10;42.20;;;;;;6261132;28;20133;-86
2021/04/12 15:05:11;;;;;;;1.55;1.00;;;14.10;41.40;;;;;;6260750;28;20071;-85
2021/04/12 15:08:20;;;;;;;1.52;1.05;;;14.10;41.20;;;;;;6261761;28;20032;-81
2021/04/12 15:11:43;;;;;;;1.20;0.70;;;14.20;40.60;;;;;;6237069;28;20041;-80
2021/04/12 15:15:08;;;;;;;1.85;0.93;;;14.20;40.10;;;;;;6237862;28;20097;-79
2021/04/12 15:18:31;;;;;;;2.35;0.80;;;14.30;40.20;;;;;;6230595;28;20487;-81
2021/04/12 15:21:42;;;;;;;1.17;0.98;;;14.30;40.90;;;;;;6218714;28;20091;-80
2021/04/12 15:24:50;;;;;;;1.60;1.17;;;14.30;41.20;;;;;;6215836;28;20124;-80
2021/04/12 15:28:04;;;;;;;4.97;1.77;;;14.30;41.30;;;;;;6233137;28;20033;-78
2021/04/12 15:31:34;;;;;;;4.63;0.90;;;14.20;40.40;;;;;;6248811;28;20025;-81
2021/04/12 15:34:45;;;;;;;3.20;0.90;;;14.20;40.20;;;;;;6216843;28;20048;-80
2021/04/12 15:38:37;;;;;;;;;;;;;;;;;;;;;
2021/04/12 15:42:26;;;;;;;;;;;;;;;;;;;;;
2021/04/12 15:45:48;;;;;;;3.28;1.15;;;14.40;40.30;;;;;;6132238;29;20386;-78
2021/04/12 15:49:42;;;;;;;1.23;0.93;;;14.50;39.90;;;;;;6137384;29;20050;-80
2021/04/12 15:52:54;;;;;;;1.33;0.95;;;14.50;39.10;;;;;;6027752;29;20145;-79
2021/04/12 15:56:17;;;;;;;1.48;0.90;;;14.60;39.30;;;;;;6027346;29;20034;-82
2021/04/12 15:59:51;;;;;;;0.75;0.75;;;14.70;38.70;;;;;;6034578;29;20041;-79
2021/04/12 16:03:15;;;;;;;1.70;0.90;;;14.70;38.70;;;;;;5975343;29;20421;-81
2021/04/12 16:06:23;;;;;;;0.77;0.77;;;14.60;38.70;;;;;;5975311;29;20530;-80
2021/04/12 16:09:29;;;;;;;1.70;1.00;;;14.80;39.30;;;;;;5981446;29;20069;-78
2021/04/12 16:13:10;;;;;;;1.20;0.90;;;14.80;39.60;;;;;;5992536;29;20046;-79
2021/04/12 16:17:02;;;;;;;2.33;1.35;;;14.80;39.10;;;;;;6014029;29;20342;-80
2021/04/12 16:20:50;;;;;;;4.80;1.40;;;14.60;38.60;;;;;;6037126;29;20041;-79
2021/04/12 16:24:01;;;;;;;3.03;1.30;;;14.50;38.00;;;;;;6036849;29;20146;-77
2021/04/12 16:27:21;;;;;;;1.30;1.05;;;14.40;38.50;;;;;;6096298;29;20040;-78
2021/04/12 16:30:33;;;;;;;1.60;1.10;;;14.30;38.90;;;;;;6111706;29;20027;-77
2021/04/12 16:33:43;;;;;;;1.80;1.10;;;14.20;39.20;;;;;;6112711;29;20035;-80
2021/04/12 16:36:52;;;;;;;2.28;1.02;;;14.20;39.10;;;;;;6098709;28;20040;-80
2021/04/12 16:39:54;;;;;;;2.45;1.20;;;14.10;39.30;;;;;;6143620;28;20134;-76
2021/04/12 16:43:05;;;;;;;1.80;0.93;;;14.10;38.50;;;;;;6143567;28;20031;-78
2021/04/12 16:46:40;;;;;;;1.02;0.70;;;14.10;38.90;;;;;;6225391;28;20170;-77
2021/04/12 16:49:47;;;;;;;5.47;1.10;;;14.10;39.10;;;;;;6233777;28;20040;-78
2021/04/12 16:52:54;;;;;;;2.50;1.10;;;14.00;38.70;;;;;;6230652;28;20514;-76
2021/04/12 16:56:09;;;;;;;1.30;1.10;;;13.90;39.00;;;;;;6239888;28;20460;-76
2021/04/12 16:59:41;;;;;;;4.00;1.27;;;13.90;38.80;;;;;;6226737;28;20029;-77
2021/04/12 17:02:50;;;;;;;1.08;0.90;;;13.90;39.10;;;;;;6226048;28;20036;-77
2021/04/12 17:06:06;;;;;;;2.20;1.00;;;13.90;39.10;;;;;;6258306;28;20033;-77
2021/04/12 17:09:18;;;;;;;1.27;1.00;;;13.90;38.80;;;;;;6240969;28;20037;-77
2021/04/12 17:12:36;;;;;;;3.13;0.90;;;13.80;39.40;;;;;;6256453;28;20439;-77
2021/04/12 17:15:52;;;;;;;1.27;1.00;;;13.80;39.50;;;;;;6220477;28;20052;-79
2021/04/12 17:19:25;;;;;;;1.38;1.00;;;13.80;39.20;;;;;;6214701;28;20022;-76
2021/04/12 17:22:32;;;;;;;0.60;0.60;;;13.70;39.50;;;;;;6231669;28;20040;-77
2021/04/12 17:25:48;;;;;;;2.37;1.27;;;13.70;39.00;;;;;;6232633;28;20503;-76
2021/04/12 17:28:54;;;;;;;3.08;0.88;;;13.60;39.10;;;;;;6227014;28;20088;-76
2021/04/12 17:32:18;;;;;;;1.92;1.25;;;13.60;39.10;;;;;;6227102;28;20033;-75
2021/04/12 17:35:32;;;;;;;1.83;1.20;;;13.60;39.20;;;;;;6239373;28;20112;-77
2021/04/12 17:38:50;;;;;;;2.40;1.27;;;13.50;38.70;;;;;;6221498;28;20087;-77
2021/04/12 17:42:13;;;;;;;1.13;0.95;;;13.50;39.00;;;;;;6241427;28;20025;-78
2021/04/12 17:45:33;;;;;;;1.20;0.80;;;13.50;39.50;;;;;;6246487;28;20029;-77
2021/04/12 17:48:47;;;;;;;1.95;1.40;;;13.50;39.00;;;;;;6231321;28;20053;-77
2021/04/12 17:51:53;;;;;;;5.03;1.10;;;13.40;39.00;;;;;;6232588;28;20116;-76
2021/04/12 17:55:33;;;;;;;1.45;0.82;;;13.40;39.40;;;;;;6265663;28;20030;-78